createdAt,value
2023-01-19T00:00:13.096Z,6.10
2023-01-19T00:08:56.046Z,9.70
2023-01-19T00:17:19.256Z,7.70
2023-01-19T00:25:44.234Z,7.40
2023-01-19T00:34:07.954Z,9.70
2023-01-19T00:42:46.155Z,16.40
2023-01-19T00:51:09.165Z,12.00
2023-01-19T00:59:32.214Z,9.80
2023-01-19T01:07:55.305Z,10.80
2023-01-19T01:16:18.336Z,8.60
2023-01-19T01:24:41.276Z,8.20
2023-01-19T01:33:04.131Z,8.10
2023-01-19T01:41:27.799Z,7.20
2023-01-19T01:50:03.296Z,8.10
2023-01-19T01:58:27.122Z,14.50
2023-01-19T02:07:09.318Z,9.00
2023-01-19T02:15:33.766Z,11.20
2023-01-19T02:23:59.013Z,10.90
2023-01-19T02:32:21.888Z,8.50
2023-01-19T02:40:47.379Z,10.00
2023-01-19T02:49:10.269Z,9.30
2023-01-19T02:58:09.954Z,10.60
2023-01-19T03:06:39.039Z,10.20
2023-01-19T03:15:37.697Z,9.80
2023-01-19T03:24:04.104Z,9.30
2023-01-19T03:32:37.745Z,11.00
2023-01-19T03:41:05.331Z,9.20
2023-01-19T03:49:31.663Z,13.40
2023-01-19T03:57:54.630Z,11.40
2023-01-19T04:06:18.580Z,40.40
2023-01-19T04:14:42.786Z,10.80
2023-01-19T04:23:05.728Z,11.10
2023-01-19T04:31:28.605Z,12.80
2023-01-19T04:39:51.598Z,12.90
2023-01-19T04:48:15.469Z,12.70
2023-01-19T04:56:38.729Z,15.70
2023-01-19T05:05:02.238Z,13.80
2023-01-19T05:13:25.298Z,13.10
2023-01-19T05:21:48.236Z,11.80
2023-01-19T05:30:13.333Z,11.00
2023-01-19T05:38:36.319Z,13.60
2023-01-19T05:46:59.312Z,13.40
2023-01-19T05:55:22.407Z,20.70
2023-01-19T06:03:45.354Z,12.10
2023-01-19T06:12:08.405Z,13.00
2023-01-19T06:20:31.322Z,12.60
2023-01-19T06:28:59.524Z,9.80
2023-01-19T06:37:26.918Z,15.00
2023-01-19T06:45:53.364Z,14.50
2023-01-19T06:54:17.588Z,12.10
2023-01-19T07:02:44.875Z,16.20
2023-01-19T07:11:26.219Z,17.30
2023-01-19T07:20:07.699Z,21.00
2023-01-19T07:28:31.732Z,24.90
2023-01-19T07:36:56.178Z,21.40
2023-01-19T07:45:20.928Z,19.60
2023-01-19T07:53:45.181Z,23.10
2023-01-19T08:02:11.716Z,24.70
2023-01-19T08:10:35.288Z,22.50
2023-01-19T08:18:58.369Z,19.40
2023-01-19T08:27:21.825Z,21.80
2023-01-19T08:35:49.078Z,23.80
2023-01-19T08:44:12.113Z,24.00
2023-01-19T08:52:35.763Z,28.30
2023-01-19T09:01:00.696Z,29.80
2023-01-19T09:09:25.058Z,21.40
2023-01-19T09:17:47.965Z,31.00
2023-01-19T09:26:11.748Z,26.00
2023-01-19T09:34:35.316Z,20.50
2023-01-19T09:43:14.289Z,20.60
2023-01-19T09:51:41.990Z,29.20
2023-01-19T10:00:18.221Z,23.40
2023-01-19T10:08:53.142Z,22.90
2023-01-19T10:17:38.930Z,23.70
2023-01-19T10:26:14.651Z,32.90
2023-01-19T10:34:37.632Z,19.80
2023-01-19T10:43:01.019Z,19.00
2023-01-19T10:51:24.618Z,16.80
2023-01-19T10:59:52.460Z,14.50
2023-01-19T11:08:29.770Z,16.10
2023-01-19T11:16:58.256Z,12.10
2023-01-19T11:25:32.939Z,15.60
2023-01-19T11:34:01.123Z,11.60
2023-01-19T11:42:25.641Z,11.00
2023-01-19T11:50:50.176Z,13.20
2023-01-19T11:59:14.057Z,17.00
2023-01-19T12:07:38.866Z,14.20
2023-01-19T12:16:20.125Z,11.90
2023-01-19T12:24:56.442Z,15.70
2023-01-19T12:33:35.231Z,24.80
2023-01-19T12:42:17.566Z,19.20
2023-01-19T12:50:46.745Z,24.60
2023-01-19T12:59:25.595Z,12.40
2023-01-19T13:08:07.326Z,14.60
2023-01-19T13:16:31.676Z,19.60
2023-01-19T13:25:11.015Z,16.70
2023-01-19T13:33:44.154Z,21.80
2023-01-19T13:42:15.986Z,35.30
2023-01-19T13:50:40.202Z,29.40
2023-01-19T13:59:05.142Z,30.30
2023-01-19T14:07:28.069Z,45.30
2023-01-19T14:15:55.211Z,29.30
2023-01-19T14:24:24.953Z,24.70
2023-01-19T14:32:47.882Z,19.00
2023-01-19T14:41:13.615Z,32.50
2023-01-19T14:49:40.406Z,34.10
2023-01-19T14:58:16.622Z,36.10
2023-01-19T15:06:43.290Z,32.60
2023-01-19T15:15:13.021Z,31.20
2023-01-19T15:23:36.065Z,39.30
2023-01-19T15:31:59.440Z,64.00
2023-01-19T15:40:23.490Z,71.90
2023-01-19T15:48:48.226Z,64.10
2023-01-19T15:57:11.291Z,66.70
2023-01-19T16:05:42.483Z,43.90
2023-01-19T16:14:06.334Z,58.10
2023-01-19T16:22:31.807Z,95.90
2023-01-19T16:30:55.266Z,80.40
2023-01-19T16:39:18.424Z,108.00
2023-01-19T16:47:41.352Z,92.40
2023-01-19T16:56:09.137Z,98.80
2023-01-19T17:04:32.259Z,87.20
2023-01-19T17:12:55.594Z,125.30
2023-01-19T17:21:23.262Z,73.80
2023-01-19T17:29:47.669Z,94.40
2023-01-19T17:38:12.770Z,100.10
2023-01-19T17:46:43.968Z,63.20
2023-01-19T17:55:08.135Z,65.70
2023-01-19T18:03:32.050Z,81.10
2023-01-19T18:11:57.131Z,156.10
2023-01-19T18:20:20.806Z,104.70
2023-01-19T18:28:44.775Z,80.80
2023-01-19T18:37:07.745Z,41.20
2023-01-19T18:45:30.801Z,60.60
2023-01-19T18:53:54.248Z,50.20
2023-01-19T19:02:17.454Z,60.70
2023-01-19T19:10:41.817Z,44.10
2023-01-19T19:19:05.041Z,45.60
2023-01-19T19:27:28.004Z,37.60
2023-01-19T19:35:56.624Z,35.30
2023-01-19T19:44:19.452Z,29.20
2023-01-19T19:52:42.429Z,29.50
2023-01-19T20:01:13.594Z,22.90
2023-01-19T20:09:37.115Z,21.70
2023-01-19T20:17:59.992Z,23.70
2023-01-19T20:26:26.866Z,22.50
2023-01-19T20:34:49.833Z,21.40
2023-01-19T20:43:12.946Z,21.00
2023-01-19T20:51:44.013Z,21.90
2023-01-19T21:00:28.413Z,26.30
2023-01-19T21:08:51.920Z,19.60
2023-01-19T21:17:15.015Z,18.20
2023-01-19T21:25:38.396Z,21.90
2023-01-19T21:34:01.650Z,29.00
2023-01-19T21:42:24.626Z,30.30
2023-01-19T21:50:56.669Z,25.50
2023-01-19T21:59:20.443Z,23.90
2023-01-19T22:07:44.005Z,36.60
2023-01-19T22:16:16.778Z,22.40
2023-01-19T22:24:39.943Z,27.00
2023-01-19T22:33:02.904Z,23.80
2023-01-19T22:41:29.260Z,21.40
2023-01-19T22:49:52.183Z,20.00
2023-01-19T22:58:15.184Z,22.70
2023-01-19T23:06:38.695Z,17.10
2023-01-19T23:15:01.763Z,19.40
2023-01-19T23:23:24.758Z,17.70
2023-01-19T23:31:49.227Z,21.80
2023-01-19T23:40:12.554Z,17.60
2023-01-19T23:48:36.095Z,18.50
2023-01-19T23:56:59.309Z,20.30
